Time;durP1;ratioP1;P1;durP2;ratioP2;P2;SDS_P1;SDS_P2;PMS_P1;PMS_P2;Temp;Humidity;BMP_temperature;BMP_pressure;BME280_temperature;BME280_humidity;BME280_pressure;Samples;Min_cycle;Max_cycle;Signal;HPM_P1;HPM_P2
2023/08/15 00:02:51;;;;;;;4.05;2.78;;;;;;;22.80;96.30;154441.91;10464235;28;20041;-74
2023/08/15 00:07:53;;;;;;;2.15;1.90;;;;;;;22.34;97.25;154324.72;10446410;28;20060;-75
2023/08/15 00:12:54;;;;;;;2.05;1.65;;;;;;;22.09;97.78;154260.88;10463528;28;20049;-74
2023/08/15 00:17:56;;;;;;;1.60;1.50;;;;;;;22.06;96.43;154253.09;10463150;28;20041;-73
2023/08/15 00:22:58;;;;;;;1.20;1.00;;;;;;;21.94;96.49;154221.84;10462875;28;20045;-73
2023/08/15 00:28:00;;;;;;;1.92;1.27;;;;;;;21.72;98.03;154165.91;10463170;28;20056;-74
2023/08/15 00:33:04;;;;;;;1.02;0.80;;;;;;;21.89;96.79;154210.16;10444289;28;20059;-74
2023/08/15 00:38:06;;;;;;;1.52;1.23;;;;;;;21.82;97.45;154193.19;10444183;28;20049;-74
2023/08/15 00:43:10;;;;;;;1.38;1.05;;;;;;;21.56;99.78;154126.88;10443735;28;20053;-74
2023/08/15 00:48:12;;;;;;;1.23;0.90;;;;;;;21.67;98.48;154154.19;10461752;28;20463;-75
2023/08/15 00:53:16;;;;;;;1.63;1.00;;;;;;;21.37;100.00;154078.72;10443459;28;20041;-74
2023/08/15 00:58:20;;;;;;;1.08;1.00;;;;;;;21.47;99.63;154103.47;10461431;28;20041;-74
2023/08/15 01:08:59;;;;;;;1.13;0.88;;;;;;;21.19;100.00;154031.84;10480335;28;20041;-71
2023/08/15 01:14:11;;;;;;;1.30;1.10;;;;;;;21.27;100.00;154051.34;10500542;28;20053;-70
2023/08/15 01:19:37;;;;;;;1.00;0.90;;;;;;;21.08;100.00;154003.25;10501969;28;20044;-72
2023/08/15 01:24:44;;;;;;;1.20;1.00;;;;;;;21.06;100.00;153998.00;10500028;28;20042;-71
2023/08/15 01:29:46;;;;;;;1.45;1.15;;;;;;;21.02;100.00;153987.59;10482746;28;20544;-71
2023/08/15 01:35:02;;;;;;;1.40;0.90;;;;;;;20.80;100.00;153932.97;10500823;28;20044;-71
2023/08/15 01:40:09;;;;;;;1.35;0.95;;;;;;;20.92;100.00;153964.19;10499395;28;20052;-71
2023/08/15 01:45:12;;;;;;;1.48;1.20;;;;;;;20.87;100.00;153949.91;10482871;28;20131;-71
2023/08/15 01:50:13;;;;;;;1.67;1.00;;;;;;;20.82;100.00;153938.19;10498999;28;20041;-71
2023/08/15 01:55:15;;;;;;;1.70;1.00;;;;;;;20.66;100.00;153897.84;10498716;28;20051;-71
2023/08/15 02:00:17;;;;;;;1.83;1.20;;;;;;;20.69;100.00;153903.09;10499708;28;20462;-71
2023/08/15 02:05:18;;;;;;;1.00;0.93;;;;;;;20.67;100.00;153899.16;10500012;28;20497;-70
2023/08/15 02:10:20;;;;;;;1.85;1.38;;;;;;;20.55;100.00;153869.28;10500101;28;20040;-71
2023/08/15 02:15:22;;;;;;;1.60;1.15;;;;;;;20.49;100.00;153852.34;10499272;28;20041;-70
2023/08/15 02:20:24;;;;;;;1.20;1.10;;;;;;;20.47;100.00;153848.41;10480779;28;20147;-71
2023/08/15 02:25:26;;;;;;;1.65;1.40;;;;;;;20.47;100.00;153847.13;10497686;28;20135;-70
2023/08/15 02:30:27;;;;;;;1.90;1.40;;;;;;;20.44;100.00;153840.59;10498996;28;20478;-71
2023/08/15 02:35:29;;;;;;;1.33;1.20;;;;;;;20.27;100.00;153797.69;10498639;28;20040;-71
2023/08/15 02:40:31;;;;;;;3.88;1.10;;;;;;;20.25;100.00;153792.50;10497140;28;20044;-71
2023/08/15 02:45:32;;;;;;;1.80;1.23;;;;;;;20.36;100.00;153821.13;10480769;28;20109;-71
2023/08/15 02:50:35;;;;;;;1.85;1.40;;;;;;;20.23;100.00;153787.34;10498781;28;20064;-71
2023/08/15 02:55:37;;;;;;;1.98;1.30;;;;;;;20.30;100.00;153804.22;10498034;28;20519;-71
2023/08/15 03:00:39;;;;;;;1.48;1.35;;;;;;;20.19;100.00;153776.94;10480546;28;20045;-71
2023/08/15 03:05:41;;;;;;;2.85;1.60;;;;;;;20.14;100.00;153763.88;10498162;28;20040;-71
2023/08/15 03:10:43;;;;;;;1.63;1.52;;;;;;;20.16;100.00;153769.13;10496536;28;20044;-71
2023/08/15 03:15:51;;;;;;;1.20;1.10;;;;;;;20.40;100.00;153830.19;10479601;28;20105;-71
2023/08/15 03:20:58;;;;;;;2.80;1.50;;;;;;;20.18;100.00;153774.28;10496155;28;20028;-71
2023/08/15 03:26:04;;;;;;;1.70;1.60;;;;;;;20.11;100.00;153756.13;10497167;28;20055;-71
2023/08/15 03:31:09;;;;;;;1.98;1.35;;;;;;;20.01;100.00;153731.44;10503773;28;20048;-71
2023/08/15 03:36:25;;;;;;;1.90;1.73;;;;;;;19.93;100.00;153710.63;10497339;28;20048;-71
2023/08/15 03:41:28;;;;;;;2.05;1.88;;;;;;;19.89;100.00;153701.53;10504105;28;20040;-71
2023/08/15 03:46:29;;;;;;;2.53;2.00;;;;;;;20.02;100.00;153734.03;10505638;28;20479;-70
2023/08/15 03:51:31;;;;;;;2.17;1.90;;;;;;;19.95;100.00;153715.81;10506156;28;20102;-72
2023/08/15 03:56:39;;;;;;;2.00;1.80;;;;;;;19.76;100.00;153666.44;10487221;28;20049;-70
2023/08/15 04:01:40;;;;;;;1.95;1.85;;;;;;;19.75;100.00;153665.13;10502807;28;20048;-70
2023/08/15 04:06:43;;;;;;;1.85;1.67;;;;;;;19.84;100.00;153688.53;10496100;28;20413;-71
2023/08/15 04:11:46;;;;;;;2.30;2.10;;;;;;;20.17;100.00;153773.00;10504424;28;20090;-70
2023/08/15 04:16:48;;;;;;;3.00;2.80;;;;;;;20.06;100.00;153744.41;10502413;28;20041;-70
2023/08/15 04:21:50;;;;;;;2.55;2.15;;;;;;;19.96;100.00;153717.09;10503959;28;20413;-70
2023/08/15 04:26:52;;;;;;;2.70;2.50;;;;;;;19.94;100.00;153713.22;10502421;28;20446;-70
2023/08/15 04:31:54;;;;;;;2.45;2.25;;;;;;;20.01;100.00;153731.44;10485826;28;20044;-70
2023/08/15 04:36:56;;;;;;;3.58;2.60;;;;;;;20.05;100.00;153741.78;10503251;28;20119;-70
2023/08/15 04:41:58;;;;;;;2.80;2.60;;;;;;;20.10;100.00;153754.81;10483912;28;20040;-70
2023/08/15 04:47:00;;;;;;;3.58;3.17;;;;;;;20.12;100.00;153760.00;10502793;28;20505;-70
2023/08/15 04:52:02;;;;;;;3.42;3.13;;;;;;;20.10;100.00;153753.53;10503626;28;20549;-70
2023/08/15 04:57:04;;;;;;;4.22;3.90;;;;;;;20.26;100.00;153793.81;10502677;28;20240;-70
2023/08/15 05:02:06;;;;;;;3.28;2.97;;;;;;;20.44;100.00;153839.31;10502266;28;20040;-70
2023/08/15 05:07:07;;;;;;;3.97;3.67;;;;;;;20.57;100.00;153874.47;10502531;28;20071;-69
2023/08/15 05:12:09;;;;;;;3.95;3.65;;;;;;;20.80;100.00;153932.97;10484374;28;20041;-70
2023/08/15 05:17:11;;;;;;;3.90;3.58;;;;;;;20.86;100.00;153948.59;10501864;28;20047;-70
2023/08/15 05:22:13;;;;;;;3.55;3.30;;;;;;;20.94;100.00;153968.13;10500038;28;20040;-70
2023/08/15 05:27:16;;;;;;;2.85;2.65;;;;;;;21.26;100.00;154050.06;10500060;28;20060;-70
2023/08/15 05:32:19;;;;;;;3.13;2.92;;;;;;;21.29;100.00;154056.53;10483674;28;20045;-70
2023/08/15 05:37:21;;;;;;;2.72;2.53;;;;;;;21.41;100.00;154087.81;10499698;28;20078;-71
2023/08/15 05:42:23;;;;;;;6.05;3.38;;;;;;;21.82;90.93;154193.19;10501324;28;20448;-70
2023/08/15 05:47:25;;;;;;;3.08;2.78;;;;;;;21.85;90.17;154199.72;10501055;28;20044;-70
2023/08/15 05:52:27;;;;;;;2.85;2.65;;;;;;;21.95;89.86;154224.44;10500388;28;20036;-70
2023/08/15 05:57:29;;;;;;;3.35;3.05;;;;;;;22.17;84.83;154283.06;10501164;28;20041;-70
2023/08/15 06:02:35;;;;;;;2.70;2.28;;;;;;;22.53;78.55;154374.19;10500248;28;20041;-70
2023/08/15 06:07:36;;;;;;;4.13;2.80;;;;;;;23.00;76.06;154492.75;10499588;28;20052;-71
2023/08/15 06:12:38;;;;;;;2.70;2.50;;;;;;;23.60;71.97;154647.78;10482210;28;20041;-71
2023/08/15 06:17:41;;;;;;;2.38;2.17;;;;;;;24.06;66.90;154765.09;10499972;28;20508;-71
2023/08/15 06:22:43;;;;;;;3.15;2.00;;;;;;;24.53;65.37;154885.06;10500627;28;20033;-71
2023/08/15 06:27:45;;;;;;;2.50;2.30;;;;;;;25.04;63.78;155014.13;10499464;28;20044;-71
2023/08/15 06:32:47;;;;;;;2.20;1.92;;;;;;;25.46;60.03;155121.13;10510784;28;20071;-71
2023/08/15 06:37:49;;;;;;;2.78;2.20;;;;;;;25.67;57.70;155175.88;10511998;28;20044;-71
2023/08/15 06:42:50;;;;;;;2.00;1.77;;;;;;;25.74;57.39;155192.88;10499230;28;20040;-70
2023/08/15 06:47:52;;;;;;;2.58;1.70;;;;;;;25.94;56.77;155245.06;10499675;28;20094;-71
2023/08/15 06:52:54;;;;;;;2.17;1.98;;;;;;;26.06;56.13;155276.41;10481188;28;20119;-71
2023/08/15 06:57:56;;;;;;;2.95;2.10;;;;;;;26.14;56.53;155295.97;10499651;28;20052;-70
2023/08/15 07:02:57;;;;;;;2.03;1.85;;;;;;;26.44;56.22;155371.72;10502262;28;20043;-71
2023/08/15 07:07:59;;;;;;;2.58;2.05;;;;;;;26.56;56.71;155404.38;10589917;22;20080;-73
2023/08/15 07:13:02;;;;;;;2.70;2.08;;;;;;;26.67;55.25;155433.06;10598405;28;20461;-73
2023/08/15 07:18:04;;;;;;;2.33;2.03;;;;;;;26.67;54.22;155431.75;10580793;28;20052;-75
2023/08/15 07:23:07;;;;;;;2.40;1.90;;;;;;;26.49;54.40;155386.06;10568195;28;20051;-73
2023/08/15 07:28:09;;;;;;;6.63;2.00;;;;;;;26.55;54.26;155401.72;10571121;28;20044;-73
2023/08/15 07:33:12;;;;;;;2.70;2.25;;;;;;;26.70;53.70;155438.31;10579790;28;20502;-74
2023/08/15 07:38:14;;;;;;;3.95;2.30;;;;;;;26.77;54.09;155456.53;10554137;28;20215;-74
2023/08/15 07:43:16;;;;;;;2.35;2.15;;;;;;;26.84;54.75;155474.84;10559867;28;20032;-74
2023/08/15 07:48:18;;;;;;;3.20;1.90;;;;;;;27.20;53.37;155566.28;10575684;28;20050;-74
2023/08/15 07:53:21;;;;;;;1.77;1.67;;;;;;;27.26;52.42;155583.22;10565330;28;20044;-73
2023/08/15 07:58:23;;;;;;;2.45;1.67;;;;;;;27.47;53.09;155636.78;10577079;28;20059;-73
2023/08/15 08:03:25;;;;;;;1.88;1.77;;;;;;;27.72;50.78;155700.84;10568695;28;20044;-74
2023/08/15 08:08:27;;;;;;;2.17;1.95;;;;;;;27.84;51.70;155730.84;10572718;28;20088;-73
2023/08/15 08:13:28;;;;;;;2.63;2.42;;;;;;;27.83;52.37;155729.53;10595926;28;20429;-74
2023/08/15 08:18:30;;;;;;;3.83;2.03;;;;;;;27.87;49.98;155738.69;10588003;28;20088;-73
2023/08/15 08:23:32;;;;;;;3.13;2.15;;;;;;;27.83;49.75;155729.53;10568317;28;20048;-73
2023/08/15 08:28:34;;;;;;;2.30;2.08;;;;;;;28.06;49.32;155788.31;10546998;28;20528;-73
2023/08/15 08:33:36;;;;;;;2.47;1.80;;;;;;;28.26;50.68;155838.00;10546128;28;20040;-74
2023/08/15 08:38:38;;;;;;;2.38;2.00;;;;;;;28.63;48.29;155934.69;10564587;28;20077;-74
2023/08/15 08:43:40;;;;;;;2.92;2.30;;;;;;;28.49;48.23;155898.13;10586919;28;20040;-73
2023/08/15 08:48:42;;;;;;;2.20;2.03;;;;;;;28.51;49.98;155903.38;10569777;28;20081;-74
2023/08/15 08:53:44;;;;;;;2.65;2.13;;;;;;;28.55;49.54;155912.47;10588382;28;20062;-76
2023/08/15 08:58:48;;;;;;;3.47;2.03;;;;;;;28.75;47.53;155963.47;10588223;28;20112;-74
2023/08/15 09:03:51;;;;;;;2.13;1.95;;;;;;;28.55;50.00;155913.78;10586817;28;20032;-74
2023/08/15 09:08:53;;;;;;;3.33;2.10;;;;;;;28.94;47.46;156013.13;10568239;28;20075;-74
2023/08/15 09:13:55;;;;;;;2.10;1.90;;;;;;;28.97;48.38;156021.03;10569513;28;20400;-74
2023/08/15 09:19:02;;;;;;;2.75;1.85;;;;;;;29.54;47.32;156167.44;10570170;28;20089;-74
2023/08/15 09:24:05;;;;;;;2.17;1.90;;;;;;;30.09;45.05;156308.69;10585799;28;20464;-73
2023/08/15 09:29:07;;;;;;;2.78;1.95;;;;;;;30.55;44.29;156425.19;10585487;28;20048;-74
2023/08/15 09:34:10;;;;;;;2.90;1.85;;;;;;;31.06;44.33;156557.34;10542121;28;20051;-73
2023/08/15 09:39:12;;;;;;;3.13;2.17;;;;;;;31.51;43.01;156672.53;10579744;28;20047;-74
2023/08/15 09:44:30;;;;;;;2.65;1.83;;;;;;;31.94;42.93;156782.56;10586027;28;20439;-74
2023/08/15 09:49:32;;;;;;;3.25;1.75;;;;;;;32.64;41.61;156963.31;10585121;28;20035;-74
2023/08/15 09:54:35;;;;;;;2.38;1.77;;;;;;;33.25;39.44;157117.88;10575482;28;20109;-74
2023/08/15 09:59:37;;;;;;;2.03;1.92;;;;;;;33.77;37.42;157252.88;10543575;28;20440;-74
2023/08/15 10:04:41;;;;;;;2.95;2.08;;;;;;;33.91;37.92;157288.28;10542459;28;20048;-74
2023/08/15 10:09:43;;;;;;;2.90;2.55;;;;;;;34.38;38.62;157408.91;10547094;28;20078;-73
2023/08/15 10:14:46;;;;;;;2.30;2.05;;;;;;;34.73;37.15;157499.41;10584690;28;20078;-73
2023/08/15 10:19:49;;;;;;;3.28;2.38;;;;;;;34.59;36.90;157464.03;10564999;28;20063;-74
2023/08/15 10:24:50;;;;;;;2.83;2.00;;;;;;;34.58;36.28;157461.41;10542671;28;20036;-74
2023/08/15 10:29:54;;;;;;;2.50;2.20;;;;;;;34.49;37.35;157437.81;10564844;28;20059;-74
2023/08/15 10:34:59;;;;;;;2.40;1.73;;;;;;;34.69;37.00;157487.63;10535040;28;20055;-74
2023/08/15 10:40:11;;;;;;;3.08;2.13;;;;;;;34.94;37.29;157553.19;10561997;28;20066;-74
2023/08/15 10:45:14;;;;;;;2.10;1.90;;;;;;;35.18;35.26;157613.53;10585147;28;20512;-73
2023/08/15 10:50:16;;;;;;;3.88;2.15;;;;;;;35.32;35.66;157651.53;10570000;28;20036;-73
2023/08/15 10:55:18;;;;;;;3.03;1.88;;;;;;;35.98;35.28;157820.84;10550384;28;20040;-73
2023/08/15 11:00:21;;;;;;;2.10;1.90;;;;;;;36.09;35.37;157849.72;10559401;28;20035;-74
2023/08/15 11:05:24;;;;;;;3.97;2.20;;;;;;;36.10;34.71;157852.34;10555654;28;20032;-73
2023/08/15 11:10:26;;;;;;;2.15;2.00;;;;;;;35.45;33.96;157684.34;10572214;28;20135;-74
2023/08/15 11:15:31;;;;;;;2.72;1.88;;;;;;;35.33;36.16;157654.22;10582538;28;20047;-74
2023/08/15 11:20:33;;;;;;;2.40;2.20;;;;;;;35.25;35.51;157631.91;10578345;28;20050;-73
2023/08/15 11:25:35;;;;;;;2.17;1.98;;;;;;;35.04;35.43;157578.13;10556646;28;20054;-74
2023/08/15 11:30:40;;;;;;;2.40;2.20;;;;;;;34.63;35.44;157474.53;10549768;28;20064;-72
2023/08/15 11:35:45;;;;;;;2.23;2.03;;;;;;;34.55;34.50;157453.53;10565520;28;20122;-74
2023/08/15 11:40:47;;;;;;;2.33;2.13;;;;;;;34.78;35.81;157511.22;10573442;28;20076;-74
2023/08/15 11:45:49;;;;;;;3.05;2.55;;;;;;;35.62;35.13;157728.97;10568199;28;20046;-74
2023/08/15 11:50:51;;;;;;;5.70;2.20;;;;;;;35.25;35.53;157631.91;10566841;28;20543;-74
2023/08/15 11:55:53;;;;;;;2.22;2.05;;;;;;;35.20;35.42;157618.81;10548615;28;20134;-72
2023/08/15 12:01:05;;;;;;;4.65;2.40;;;;;;;34.83;36.46;157524.31;10589207;28;20478;-71
2023/08/15 12:06:10;;;;;;;2.35;2.15;;;;;;;34.76;36.20;157507.28;10591068;28;20084;-72
2023/08/15 12:11:12;;;;;;;3.42;2.13;;;;;;;34.41;36.83;157415.50;10565856;28;20040;-72
2023/08/15 12:16:14;;;;;;;2.85;2.25;;;;;;;34.58;36.07;157460.13;10584200;28;20075;-72
2023/08/15 12:21:16;;;;;;;2.30;2.10;;;;;;;34.62;35.66;157471.91;10580525;28;20035;-72
2023/08/15 12:26:18;;;;;;;2.83;2.53;;;;;;;34.73;37.95;157499.41;10560024;28;20399;-71
2023/08/15 12:31:20;;;;;;;2.65;2.45;;;;;;;34.50;37.19;157440.44;10562888;28;20359;-71
2023/08/15 12:36:22;;;;;;;2.30;2.10;;;;;;;34.01;37.25;157313.25;10570190;28;20039;-72
2023/08/15 12:41:24;;;;;;;2.40;2.20;;;;;;;33.84;37.41;157269.94;10557076;28;20032;-71
2023/08/15 12:46:26;;;;;;;2.90;2.13;;;;;;;33.46;38.46;157172.97;10565952;28;20452;-72
2023/08/15 12:51:28;;;;;;;2.67;2.25;;;;;;;33.26;39.66;157121.84;10587374;28;20036;-71
2023/08/15 12:56:30;;;;;;;2.45;2.10;;;;;;;33.23;38.31;157112.66;10587707;28;20044;-71
2023/08/15 13:01:32;;;;;;;2.42;1.75;;;;;;;33.34;39.06;157141.50;10587445;28;20027;-71
2023/08/15 13:06:34;;;;;;;2.47;2.28;;;;;;;33.43;41.42;157163.78;10580007;22;20042;-70
2023/08/15 13:11:37;;;;;;;2.53;2.33;;;;;;;33.75;38.42;157247.69;10501140;28;20116;-69
2023/08/15 13:16:38;;;;;;;2.75;2.45;;;;;;;33.63;37.26;157217.53;10501927;28;20068;-69
2023/08/15 13:21:40;;;;;;;2.60;2.40;;;;;;;33.76;37.63;157248.97;10501602;28;20045;-67
2023/08/15 13:26:42;;;;;;;4.93;1.60;;;;;;;33.88;37.99;157280.44;10501843;28;20068;-69
2023/08/15 13:31:44;;;;;;;2.65;2.45;;;;;;;34.04;36.93;157322.38;10503530;28;20119;-69
2023/08/15 13:36:46;;;;;;;2.22;2.13;;;;;;;34.33;34.95;157397.13;10501696;28;20409;-69
2023/08/15 13:41:50;;;;;;;2.65;2.45;;;;;;;34.11;36.89;157339.44;10483596;28;20044;-69
2023/08/15 13:46:52;;;;;;;2.88;2.13;;;;;;;33.36;42.82;157148.03;10507982;28;20048;-69
2023/08/15 13:51:54;;;;;;;2.58;2.38;;;;;;;32.89;46.68;157026.16;10500880;28;20033;-68
2023/08/15 13:56:55;;;;;;;2.65;2.20;;;;;;;32.52;48.55;156930.56;10477470;28;20131;-69
2023/08/15 14:01:57;;;;;;;3.03;2.83;;;;;;;32.32;49.14;156879.47;10490310;28;20128;-70
2023/08/15 14:06:59;;;;;;;3.15;2.88;;;;;;;32.01;50.41;156800.91;10500314;28;20067;-69
2023/08/15 14:12:01;;;;;;;2.90;2.70;;;;;;;31.87;51.13;156764.22;10500421;28;20079;-69
2023/08/15 14:17:05;;;;;;;4.72;2.67;;;;;;;31.75;51.18;156734.09;10499630;28;20040;-69
2023/08/15 14:22:07;;;;;;;2.90;2.70;;;;;;;31.70;52.65;156719.66;10501258;28;20064;-69
2023/08/15 14:27:09;;;;;;;3.55;3.25;;;;;;;31.58;54.45;156689.59;10499587;28;20136;-69
2023/08/15 14:32:11;;;;;;;3.53;2.50;;;;;;;31.26;55.86;156607.09;10500669;28;20128;-70
2023/08/15 14:37:13;;;;;;;3.53;3.22;;;;;;;30.87;57.24;156507.63;10499338;28;20072;-70
2023/08/15 14:42:15;;;;;;;3.67;3.28;;;;;;;30.51;59.20;156414.72;10499176;28;20478;-69
2023/08/15 14:47:17;;;;;;;3.42;2.92;;;;;;;30.50;59.75;156413.34;10499917;28;20067;-69
2023/08/15 14:52:19;;;;;;;3.33;3.13;;;;;;;30.04;62.60;156294.31;10498983;28;20402;-69
2023/08/15 14:57:21;;;;;;;3.40;3.10;;;;;;;29.98;63.66;156278.63;10499938;28;20106;-69
2023/08/15 15:02:23;;;;;;;3.40;3.20;;;;;;;29.88;64.00;156255.09;10498831;28;20044;-69
2023/08/15 15:07:26;;;;;;;3.45;3.15;;;;;;;29.90;64.62;156259.00;10498667;28;20048;-70
2023/08/15 15:12:28;;;;;;;3.80;3.50;;;;;;;29.82;64.83;156239.38;10498825;28;20040;-69
2023/08/15 15:17:30;;;;;;;9.38;3.33;;;;;;;29.55;65.17;156170.09;10496464;28;20044;-70
2023/08/15 15:22:32;;;;;;;4.22;3.92;;;;;;;29.20;66.67;156079.84;10498163;28;20502;-69
2023/08/15 15:27:34;;;;;;;4.72;3.67;;;;;;;29.22;66.36;156085.09;10505893;28;20052;-70
2023/08/15 15:32:36;;;;;;;4.10;3.80;;;;;;;29.17;67.02;156071.97;10507961;28;20037;-69
2023/08/15 15:37:38;;;;;;;3.80;3.50;;;;;;;29.04;68.30;156039.34;10488449;28;20053;-69
2023/08/15 15:42:39;;;;;;;5.28;3.30;;;;;;;29.07;68.44;156045.84;10488991;28;20409;-69
2023/08/15 15:47:41;;;;;;;4.00;3.70;;;;;;;28.92;69.21;156009.22;10506368;28;20048;-69
2023/08/15 15:52:43;;;;;;;4.38;4.07;;;;;;;28.72;70.69;155955.63;10506840;28;20545;-69
2023/08/15 15:57:45;;;;;;;4.45;3.95;;;;;;;28.50;72.03;155900.72;10489014;28;20544;-70
2023/08/15 16:02:47;;;;;;;4.95;4.03;;;;;;;28.47;71.65;155891.63;10506055;28;20041;-69
2023/08/15 16:07:49;;;;;;;5.07;4.30;;;;;;;28.62;71.85;155932.09;10504821;28;20044;-69
2023/08/15 16:12:51;;;;;;;4.25;3.95;;;;;;;28.66;71.44;155941.25;10507393;28;20037;-70
2023/08/15 16:17:53;;;;;;;5.72;4.05;;;;;;;28.53;72.07;155908.59;10504543;28;20470;-69
2023/08/15 16:22:55;;;;;;;4.57;4.18;;;;;;;28.38;73.21;155869.41;10480549;28;20049;-70
2023/08/15 16:27:58;;;;;;;4.55;4.15;;;;;;;28.22;73.45;155827.53;10462395;28;20047;-70
2023/08/15 16:33:00;;;;;;;4.85;4.45;;;;;;;28.17;75.20;155815.78;10464108;28;20409;-70
2023/08/15 16:38:02;;;;;;;4.82;4.43;;;;;;;28.17;75.43;155815.78;10503236;28;20409;-70
2023/08/15 16:43:11;;;;;;;4.30;4.00;;;;;;;28.12;75.80;155804.03;10503650;28;20037;-70
2023/08/15 16:48:13;;;;;;;4.88;4.47;;;;;;;27.96;76.82;155760.91;10503532;28;20055;-70
2023/08/15 16:53:16;;;;;;;5.32;4.50;;;;;;;27.98;76.09;155766.09;10476208;28;20513;-69
2023/08/15 16:58:18;;;;;;;4.43;4.05;;;;;;;27.88;76.25;155741.28;10443408;28;20065;-70
2023/08/15 17:03:19;;;;;;;4.47;4.18;;;;;;;27.84;76.79;155732.16;10462751;28;20079;-70
2023/08/15 17:08:21;;;;;;;4.40;4.00;;;;;;;27.63;79.44;155677.28;10502162;28;20033;-70
2023/08/15 17:13:23;;;;;;;4.18;3.78;;;;;;;27.48;81.32;155639.38;10502662;28;20079;-70
2023/08/15 17:18:25;;;;;;;4.38;3.80;;;;;;;27.14;84.61;155553.22;10501771;28;20071;-70
2023/08/15 17:23:27;;;;;;;3.88;3.45;;;;;;;27.08;83.14;155536.19;10501746;28;20033;-70
2023/08/15 17:28:29;;;;;;;3.88;3.58;;;;;;;26.82;84.63;155470.91;10483943;28;20101;-69
2023/08/15 17:33:30;;;;;;;3.75;3.20;;;;;;;26.71;85.12;155440.91;10501473;28;20115;-70
2023/08/15 17:38:32;;;;;;;3.25;3.05;;;;;;;26.73;82.55;155447.41;10501077;28;20055;-70
2023/08/15 17:43:36;;;;;;;3.75;3.22;;;;;;;26.45;85.21;155375.63;10502082;28;20041;-69
2023/08/15 17:48:37;;;;;;;3.25;3.05;;;;;;;26.17;86.22;155305.13;10500986;28;20049;-69
2023/08/15 17:53:39;;;;;;;3.65;2.97;;;;;;;26.09;87.10;155284.25;10501403;28;20101;-70
2023/08/15 17:58:50;;;;;;;3.10;2.90;;;;;;;25.96;86.64;155250.31;10500503;28;20047;-70
2023/08/15 18:03:54;;;;;;;4.25;3.50;;;;;;;25.89;87.63;155233.34;10499892;28;20075;-69
2023/08/15 18:08:56;;;;;;;4.13;3.70;;;;;;;25.91;87.15;155238.56;10499749;28;20090;-71
2023/08/15 18:13:59;;;;;;;3.42;3.13;;;;;;;26.14;85.42;155297.28;10499163;28;20095;-70
2023/08/15 18:19:01;;;;;;;4.32;3.92;;;;;;;25.86;89.27;155225.53;10498310;28;20044;-69
2023/08/15 18:24:03;;;;;;;3.30;3.10;;;;;;;25.79;89.20;155207.25;10499217;28;20044;-70
2023/08/15 18:29:05;;;;;;;3.83;3.53;;;;;;;25.78;89.67;155204.66;10499282;28;20055;-69
2023/08/15 18:34:08;;;;;;;4.50;4.10;;;;;;;25.63;92.02;155166.78;10499899;28;20075;-68
2023/08/15 18:39:10;;;;;;;5.22;3.97;;;;;;;25.45;93.21;155119.78;10499853;28;20470;-69
2023/08/15 18:44:11;;;;;;;3.92;3.53;;;;;;;25.51;92.49;155134.16;10498619;28;20091;-69
2023/08/15 18:49:14;;;;;;;4.35;3.95;;;;;;;25.52;91.88;155136.78;10499468;28;20520;-70
2023/08/15 18:54:15;;;;;;;3.90;3.60;;;;;;;25.32;93.36;155085.88;10499484;28;20428;-69
2023/08/15 18:59:17;;;;;;;4.00;3.70;;;;;;;25.49;93.16;155128.94;10498500;28;20115;-69
2023/08/15 19:04:19;;;;;;;4.13;3.72;;;;;;;25.35;94.18;155093.72;10499385;28;20127;-68
2023/08/15 19:09:22;;;;;;;4.80;4.05;;;;;;;25.27;95.61;155074.16;10518093;22;20098;-71
2023/08/15 19:14:24;;;;;;;4.60;4.20;;;;;;;25.25;95.01;155068.94;10488493;28;20052;-72
2023/08/15 19:19:26;;;;;;;4.88;3.50;;;;;;;25.09;96.17;155027.19;10507821;28;20508;-72
2023/08/15 19:24:29;;;;;;;4.68;4.25;;;;;;;25.00;95.97;155004.97;10506970;28;20041;-72
2023/08/15 19:29:31;;;;;;;4.60;4.20;;;;;;;25.18;94.53;155050.66;10505316;28;20047;-72
2023/08/15 19:34:44;;;;;;;3.95;3.58;;;;;;;25.26;92.84;155071.53;10508141;28;20040;-72
2023/08/15 19:39:46;;;;;;;3.13;2.85;;;;;;;24.88;95.46;154975.03;10503451;28;20547;-72
2023/08/15 19:44:48;;;;;;;4.07;3.78;;;;;;;24.91;95.24;154981.50;10505310;28;20036;-72
2023/08/15 19:49:51;;;;;;;5.70;4.10;;;;;;;24.96;94.43;154993.25;10505436;28;20124;-72
2023/08/15 19:54:53;;;;;;;4.55;3.90;;;;;;;24.37;100.00;154844.63;10503681;28;20063;-76
2023/08/15 19:59:55;;;;;;;4.13;3.83;;;;;;;24.11;100.00;154778.09;10504746;28;20095;-71
2023/08/15 20:04:57;;;;;;;4.07;3.72;;;;;;;24.11;100.00;154778.09;10504305;28;20045;-71
2023/08/15 20:09:59;;;;;;;4.40;3.63;;;;;;;24.13;100.00;154782.06;10506701;28;20115;-72
2023/08/15 20:15:12;;;;;;;4.55;4.13;;;;;;;24.17;100.00;154792.44;10511123;28;20047;-71
2023/08/15 20:20:14;;;;;;;3.80;3.50;;;;;;;24.12;100.00;154780.69;10510230;28;20055;-70
2023/08/15 20:25:16;;;;;;;4.20;3.70;;;;;;;23.99;100.00;154746.81;10508500;28;20105;-72
2023/08/15 20:30:18;;;;;;;4.25;3.83;;;;;;;23.99;100.00;154746.81;10510008;28;20075;-71
2023/08/15 20:35:20;;;;;;;4.97;3.63;;;;;;;24.16;100.00;154789.84;10511674;28;20067;-70
2023/08/15 20:40:22;;;;;;;4.47;4.18;;;;;;;24.36;99.13;154842.00;10509483;28;20040;-72
2023/08/15 20:45:24;;;;;;;5.15;4.00;;;;;;;24.04;100.00;154759.91;10508339;28;20058;-71
2023/08/15 20:50:27;;;;;;;4.93;3.95;;;;;;;23.92;100.00;154729.91;10494989;28;20124;-71
2023/08/15 20:55:29;;;;;;;3.67;3.42;;;;;;;23.88;100.00;154719.47;10513230;28;20436;-71
2023/08/15 21:00:32;;;;;;;5.78;3.70;;;;;;;23.81;100.00;154701.22;10492497;28;20044;-71
2023/08/15 21:05:35;;;;;;;4.60;4.30;;;;;;;23.89;100.00;154720.78;10511056;28;20046;-71
2023/08/15 21:10:38;;;;;;;5.32;4.93;;;;;;;23.71;100.00;154673.88;10511559;28;20060;-71
2023/08/15 21:15:40;;;;;;;3.72;3.42;;;;;;;23.70;100.00;154671.28;10509026;28;20052;-71
2023/08/15 21:20:44;;;;;;;3.50;3.13;;;;;;;23.69;100.00;154669.97;10486552;28;20080;-72
2023/08/15 21:25:46;;;;;;;4.68;4.28;;;;;;;23.66;100.00;154662.16;10502367;28;20056;-70
2023/08/15 21:30:52;;;;;;;3.72;3.42;;;;;;;23.66;100.00;154663.44;10467680;28;20080;-70
2023/08/15 21:35:54;;;;;;;4.80;4.30;;;;;;;23.63;100.00;154655.56;10501669;28;20074;-71
2023/08/15 21:40:55;;;;;;;5.28;4.43;;;;;;;23.61;100.00;154650.38;10503344;28;20094;-72
2023/08/15 21:45:57;;;;;;;4.30;3.90;;;;;;;23.70;100.00;154672.56;10501222;28;20053;-71
2023/08/15 21:50:59;;;;;;;6.57;4.03;;;;;;;23.74;100.00;154681.72;10501997;28;20414;-71
2023/08/15 21:56:01;;;;;;;4.80;4.40;;;;;;;23.70;100.00;154671.28;10483065;28;20127;-71
2023/08/15 22:01:02;;;;;;;3.88;3.47;;;;;;;23.73;100.00;154679.06;10483108;28;20143;-71
2023/08/15 22:06:04;;;;;;;4.32;3.97;;;;;;;23.66;100.00;154662.16;10500419;28;20037;-72
2023/08/15 22:11:06;;;;;;;4.85;3.72;;;;;;;23.57;100.00;154638.66;10500136;28;20123;-71
2023/08/15 22:16:08;;;;;;;4.35;4.00;;;;;;;23.55;100.00;154633.41;10500439;28;20043;-71
2023/08/15 22:21:10;;;;;;;3.90;3.70;;;;;;;23.35;100.00;154583.94;10500173;28;20044;-72
2023/08/15 22:26:12;;;;;;;5.03;4.63;;;;;;;23.27;100.00;154561.78;10481775;28;20048;-72
2023/08/15 22:31:14;;;;;;;4.70;4.30;;;;;;;23.24;100.00;154553.94;10479493;28;20067;-71
2023/08/15 22:36:21;;;;;;;4.90;4.50;;;;;;;23.05;100.00;154505.78;10476270;28;20048;-72
2023/08/15 22:41:23;;;;;;;4.80;4.50;;;;;;;23.07;100.00;154512.31;10499124;28;20047;-71
2023/08/15 22:46:25;;;;;;;4.90;4.43;;;;;;;22.96;100.00;154483.63;10499407;28;20123;-71
2023/08/15 22:51:27;;;;;;;4.80;4.03;;;;;;;22.96;100.00;154482.34;10481644;28;20044;-71
2023/08/15 22:56:29;;;;;;;5.93;5.05;;;;;;;23.05;100.00;154505.78;10498482;28;20052;-72
2023/08/15 23:01:30;;;;;;;4.80;4.32;;;;;;;23.16;100.00;154535.75;10498509;28;20045;-71
2023/08/15 23:06:32;;;;;;;5.43;4.95;;;;;;;22.98;100.00;154487.56;10498048;28;20544;-72
2023/08/15 23:11:35;;;;;;;4.68;4.35;;;;;;;22.89;100.00;154466.72;10481620;28;20087;-72